Time;durP1;ratioP1;P1;durP2;ratioP2;P2;SDS_P1;SDS_P2;PMS_P1;PMS_P2;Temp;Humidity;BMP_temperature;BMP_pressure;BME280_temperature;BME280_humidity;BME280_pressure;Samples;Min_cycle;Max_cycle;Signal;HPM_P1;HPM_P2
2024/03/06 00:02:20;;;;;;;23.80;16.70;;;;;;;12.27;52.48;101477.61;110034;1267;22726;-54
2024/03/06 00:04:47;;;;;;;23.30;17.90;;;;;;;12.28;52.41;101476.91;110462;1257;22194;-54
2024/03/06 00:07:14;;;;;;;23.30;17.10;;;;;;;12.28;52.38;101477.09;110621;1251;22155;-54
2024/03/06 00:09:42;;;;;;;23.20;18.20;;;;;;;12.27;52.37;101478.65;110606;1250;22210;-54
2024/03/06 00:12:09;;;;;;;23.70;17.40;;;;;;;12.26;52.23;101476.05;110626;1257;22125;-54
2024/03/06 00:14:36;;;;;;;20.80;16.80;;;;;;;12.25;52.22;101477.30;110617;1251;23171;-54
2024/03/06 00:17:06;;;;;;;27.10;18.60;;;;;;;12.25;52.24;101475.20;109712;1270;1002339;-54
2024/03/06 00:19:33;;;;;;;25.10;17.90;;;;;;;12.25;52.20;101474.17;110496;1257;22184;-54
2024/03/06 00:22:01;;;;;;;22.70;17.20;;;;;;;12.25;52.24;101475.39;109857;1260;1002358;-54
2024/03/06 00:24:28;;;;;;;25.40;18.30;;;;;;;12.25;52.28;101481.30;110685;1251;22155;-54
2024/03/06 00:26:54;;;;;;;22.80;17.00;;;;;;;12.26;52.48;101481.64;110618;1264;22208;-54
2024/03/06 00:29:21;;;;;;;22.30;17.10;;;;;;;12.27;52.59;101486.14;110513;1267;23095;-54
2024/03/06 00:31:48;;;;;;;23.20;16.90;;;;;;;12.29;52.59;101482.97;110514;1257;22548;-54
2024/03/06 00:34:15;;;;;;;22.70;16.80;;;;;;;12.30;52.53;101482.60;110655;1262;22383;-55
2024/03/06 00:36:43;;;;;;;21.40;17.00;;;;;;;12.32;52.38;101483.45;110566;1266;22131;-54
2024/03/06 00:39:10;;;;;;;25.30;17.20;;;;;;;12.32;52.36;101482.58;110386;1257;22282;-54
2024/03/06 00:41:37;;;;;;;24.80;17.30;;;;;;;12.32;52.32;101479.61;110430;1263;22346;-54
2024/03/06 00:44:05;;;;;;;24.20;17.80;;;;;;;12.31;52.17;101480.68;110603;1250;22320;-54
2024/03/06 00:46:32;;;;;;;27.50;18.60;;;;;;;12.29;52.14;101481.05;110594;1250;22285;-55
2024/03/06 00:48:59;;;;;;;21.10;16.30;;;;;;;12.28;52.22;101481.08;110666;1251;22427;-54
2024/03/06 00:51:26;;;;;;;22.80;16.80;;;;;;;12.28;52.47;101484.39;110638;1251;22391;-54
2024/03/06 00:54:08;;;;;;;24.40;17.20;;;;;;;12.28;52.31;101482.48;109864;1251;1002249;-54
2024/03/06 00:56:38;;;;;;;23.70;17.60;;;;;;;12.27;52.29;101483.01;110636;1266;23051;-54
2024/03/06 00:59:05;;;;;;;25.20;17.90;;;;;;;12.25;52.37;101482.17;110638;1254;22011;-54
2024/03/06 01:01:32;;;;;;;22.10;17.20;;;;;;;12.25;52.46;101485.14;110611;1251;22185;-54
2024/03/06 01:03:59;;;;;;;24.90;17.40;;;;;;;12.23;52.38;101483.59;110653;1251;22922;-54
2024/03/06 01:06:26;;;;;;;24.60;17.60;;;;;;;12.22;52.24;101479.95;110565;1269;22280;-54
2024/03/06 01:08:54;;;;;;;24.70;18.10;;;;;;;12.22;52.33;101482.91;110594;1258;22278;-54
2024/03/06 01:11:21;;;;;;;26.60;17.70;;;;;;;12.22;52.52;101485.17;109861;1255;1003518;-54
2024/03/06 01:13:48;;;;;;;23.10;17.00;;;;;;;12.21;52.60;101485.88;110624;1251;22390;-54
2024/03/06 01:16:15;;;;;;;27.10;16.80;;;;;;;12.22;52.42;101484.64;110633;1254;22387;-54
2024/03/06 01:18:42;;;;;;;23.80;17.60;;;;;;;12.22;52.33;101483.42;110591;1254;22646;-54
2024/03/06 01:21:09;;;;;;;24.40;17.80;;;;;;;12.22;52.32;101482.22;110654;1251;23094;-54
2024/03/06 01:23:35;;;;;;;25.10;18.40;;;;;;;12.22;52.54;101482.91;110615;1250;22392;-55
2024/03/06 01:26:02;;;;;;;24.80;18.10;;;;;;;12.22;52.72;101485.85;110504;1254;22501;-54
2024/03/06 01:28:29;;;;;;;23.80;17.80;;;;;;;12.23;52.70;101486.38;109643;1255;1002850;-54
2024/03/06 01:30:58;;;;;;;23.20;18.10;;;;;;;12.23;52.53;101488.46;110594;1254;23031;-54
2024/03/06 01:33:26;;;;;;;25.90;18.90;;;;;;;12.24;52.31;101490.21;110427;1256;22847;-54
2024/03/06 01:35:52;;;;;;;24.70;18.30;;;;;;;12.25;52.40;101494.34;110651;1251;22363;-54
2024/03/06 01:38:19;;;;;;;23.90;18.40;;;;;;;12.26;52.35;101495.89;110649;1254;22466;-54
2024/03/06 01:40:46;;;;;;;23.70;18.50;;;;;;;12.27;52.31;101495.36;110602;1250;22152;-54
2024/03/06 01:43:20;;;;;;;26.10;19.10;;;;;;;12.29;52.36;101496.89;110581;1255;22384;-54
2024/03/06 01:45:48;;;;;;;25.40;19.20;;;;;;;12.30;52.15;101495.48;110592;1255;22401;-55
2024/03/06 01:48:21;;;;;;;24.10;18.60;;;;;;;12.30;52.02;101495.65;110624;1254;22131;-54
2024/03/06 01:50:47;;;;;;;22.80;18.40;;;;;;;12.31;52.15;101498.43;109807;1260;1003005;-54
2024/03/06 01:53:14;;;;;;;27.60;20.20;;;;;;;12.30;51.98;101502.09;110393;1257;22193;-54
2024/03/06 01:55:41;;;;;;;27.00;19.20;;;;;;;12.31;52.00;101503.13;110457;1260;22724;-54
2024/03/06 01:58:10;;;;;;;29.60;20.10;;;;;;;12.32;51.88;101508.14;110501;1253;22410;-54
2024/03/06 02:00:37;;;;;;;27.50;19.20;;;;;;;12.33;51.82;101510.91;110662;1260;22122;-55
2024/03/06 02:03:04;;;;;;;24.00;18.90;;;;;;;12.34;51.57;101510.20;109905;1250;1002375;-54
2024/03/06 02:05:31;;;;;;;25.60;19.10;;;;;;;12.36;51.65;101510.87;110443;1267;23073;-54
2024/03/06 02:07:59;;;;;;;27.20;19.70;;;;;;;12.38;51.61;101512.91;110693;1260;22143;-54
2024/03/06 02:10:27;;;;;;;29.70;19.90;;;;;;;12.39;51.42;101513.41;110568;1254;23194;-54
2024/03/06 02:12:54;;;;;;;26.10;19.30;;;;;;;12.39;51.24;101511.67;110367;1256;23118;-55
2024/03/06 02:15:21;;;;;;;24.20;18.90;;;;;;;12.41;50.97;101511.98;110670;1256;22328;-54
2024/03/06 02:17:48;;;;;;;31.50;19.50;;;;;;;12.43;50.74;101511.25;110587;1254;22294;-54
2024/03/06 02:20:15;;;;;;;30.20;19.70;;;;;;;12.46;50.56;101512.07;110587;1257;22319;-54
2024/03/06 02:22:42;;;;;;;29.40;20.10;;;;;;;12.50;50.11;101513.91;110215;1262;22261;-54
2024/03/06 02:25:09;;;;;;;24.40;18.70;;;;;;;12.52;49.90;101516.33;110437;1259;22415;-54
2024/03/06 02:27:37;;;;;;;25.20;19.40;;;;;;;12.52;49.41;101513.00;110389;1256;22368;-54
2024/03/06 02:30:06;;;;;;;23.60;19.00;;;;;;;12.53;48.98;101514.39;110242;1250;1003193;-54
2024/03/06 02:32:33;;;;;;;23.70;17.70;;;;;;;12.53;48.82;101511.09;110617;1250;22995;-54
2024/03/06 02:35:03;;;;;;;25.00;19.10;;;;;;;12.54;48.61;101515.23;110619;1257;22310;-54
2024/03/06 02:37:30;;;;;;;23.90;19.50;;;;;;;12.56;48.53;101514.84;110613;1251;22273;-54
2024/03/06 02:39:56;;;;;;;26.40;20.40;;;;;;;12.56;48.18;101510.16;110615;1254;22284;-54
2024/03/06 02:42:23;;;;;;;26.30;20.00;;;;;;;12.54;48.23;101513.31;110604;1250;22288;-54
2024/03/06 02:44:52;;;;;;;23.50;18.40;;;;;;;12.53;48.58;101512.64;110659;1260;22210;-54
2024/03/06 02:47:19;;;;;;;28.30;19.00;;;;;;;12.54;48.73;101514.02;110540;1256;22629;-54
2024/03/06 02:49:46;;;;;;;24.20;19.90;;;;;;;12.55;48.85;101512.27;110632;1250;22270;-54
2024/03/06 02:52:13;;;;;;;28.10;19.70;;;;;;;12.55;48.72;101509.29;110347;1266;383020;-54
2024/03/06 02:54:42;;;;;;;22.90;19.00;;;;;;;12.56;48.77;101511.90;110604;1254;22396;-54
2024/03/06 02:57:09;;;;;;;21.50;18.20;;;;;;;12.56;48.79;101517.30;110641;1250;22335;-54
2024/03/06 02:59:37;;;;;;;22.90;18.60;;;;;;;12.56;48.71;101514.50;110601;1256;22411;-55
2024/03/06 03:02:04;;;;;;;26.50;19.50;;;;;;;12.56;48.47;101512.94;110612;1256;22277;-54
2024/03/06 03:04:31;;;;;;;27.00;19.10;;;;;;;12.56;48.40;101511.89;110589;1254;23168;-54
2024/03/06 03:06:58;;;;;;;26.50;19.40;;;;;;;12.57;48.33;101512.23;110622;1250;22273;-54
2024/03/06 03:09:25;;;;;;;23.10;18.90;;;;;;;12.58;48.42;101513.07;110604;1251;22272;-54
2024/03/06 03:11:52;;;;;;;25.20;19.00;;;;;;;12.59;48.20;101514.80;110614;1263;22079;-54
2024/03/06 03:14:18;;;;;;;23.70;19.40;;;;;;;12.59;47.92;101516.54;110624;1257;22333;-54
2024/03/06 03:16:45;;;;;;;24.70;18.60;;;;;;;12.60;47.95;101515.48;110613;1250;22401;-54
2024/03/06 03:19:12;;;;;;;23.60;18.70;;;;;;;12.61;48.00;101512.66;110539;1253;23103;-54
2024/03/06 03:21:43;;;;;;;23.80;19.10;;;;;;;12.63;47.89;101513.52;110534;1269;22410;-54
2024/03/06 03:24:11;;;;;;;24.10;18.60;;;;;;;12.64;47.74;101511.92;110582;1268;22941;-54
2024/03/06 03:26:37;;;;;;;21.20;17.00;;;;;;;12.66;47.72;101513.98;110609;1263;22127;-54
2024/03/06 03:29:05;;;;;;;23.20;18.00;;;;;;;12.68;47.61;101515.68;109779;1253;1002919;-54
2024/03/06 03:31:32;;;;;;;20.90;16.80;;;;;;;12.71;47.48;101514.94;110623;1252;22373;-55
2024/03/06 03:33:59;;;;;;;21.90;17.60;;;;;;;12.74;47.19;101523.40;109695;1263;1002303;-54
2024/03/06 03:36:26;;;;;;;20.80;17.80;;;;;;;12.75;47.11;101522.68;109657;1259;1002935;-54
2024/03/06 03:38:53;;;;;;;20.70;15.80;;;;;;;12.75;46.80;101522.86;110637;1263;22403;-54
2024/03/06 03:41:20;;;;;;;23.60;18.40;;;;;;;12.76;46.54;101525.80;110427;1255;22132;-54
2024/03/06 03:43:47;;;;;;;23.60;19.10;;;;;;;12.75;46.92;101528.95;110490;1255;23088;-54
2024/03/06 03:46:14;;;;;;;26.20;18.90;;;;;;;12.72;47.34;101536.32;110651;1254;22380;-55
2024/03/06 03:48:41;;;;;;;24.30;17.60;;;;;;;12.68;47.82;101534.84;110607;1254;23153;-54
2024/03/06 03:51:07;;;;;;;23.80;17.60;;;;;;;12.65;47.88;101536.63;109782;1257;1002266;-54
2024/03/06 03:53:35;;;;;;;21.20;17.30;;;;;;;12.61;48.04;101536.35;110552;1269;22743;-54
2024/03/06 03:56:03;;;;;;;22.20;17.20;;;;;;;12.56;48.18;101533.48;110627;1256;23027;-54
2024/03/06 03:58:30;;;;;;;26.40;17.40;;;;;;;12.52;48.25;101534.42;110636;1254;22907;-55
2024/03/06 04:00:58;;;;;;;22.00;16.60;;;;;;;12.47;48.11;101531.02;110647;1254;22814;-54
2024/03/06 04:03:25;;;;;;;22.00;18.60;;;;;;;12.43;48.07;101531.46;110608;1251;22357;-54
2024/03/06 04:05:52;;;;;;;24.10;16.60;;;;;;;12.39;48.31;101533.77;110657;1251;23047;-54
2024/03/06 04:08:19;;;;;;;22.70;16.60;;;;;;;12.37;48.40;101538.52;109835;1274;1006293;-54
2024/03/06 04:10:46;;;;;;;21.50;16.60;;;;;;;12.33;48.20;101539.45;110628;1254;22910;-54
2024/03/06 04:13:16;;;;;;;23.20;16.50;;;;;;;12.30;48.36;101538.28;110624;1251;22291;-54
2024/03/06 04:15:43;;;;;;;24.00;17.60;;;;;;;12.27;48.30;101540.94;110624;1250;22455;-54
2024/03/06 04:18:10;;;;;;;24.70;17.40;;;;;;;12.25;48.35;101544.11;110628;1254;22299;-55
2024/03/06 04:20:37;;;;;;;21.80;17.00;;;;;;;12.21;48.17;101546.77;109866;1264;1003086;-54
2024/03/06 04:23:04;;;;;;;24.50;17.00;;;;;;;12.16;48.16;101545.63;109861;1260;1003179;-55
2024/03/06 04:25:32;;;;;;;23.60;16.10;;;;;;;12.15;48.12;101548.26;110593;1254;22195;-54
2024/03/06 04:27:58;;;;;;;22.90;17.30;;;;;;;12.14;48.07;101551.58;109835;1256;1002417;-54
2024/03/06 04:30:25;;;;;;;21.70;17.40;;;;;;;12.12;48.13;101555.60;109671;1258;1003102;-56
2024/03/06 04:32:52;;;;;;;21.70;17.10;;;;;;;12.12;48.13;101552.48;110444;1256;22747;-54
2024/03/06 04:35:19;;;;;;;24.00;17.10;;;;;;;12.08;48.15;101556.02;110603;1251;22291;-54
2024/03/06 04:37:47;;;;;;;21.90;16.90;;;;;;;12.09;47.89;101555.48;110616;1254;22344;-54
2024/03/06 04:40:17;;;;;;;22.20;17.70;;;;;;;12.09;47.80;101553.91;109809;1256;1002795;-54
2024/03/06 04:42:47;;;;;;;24.00;17.40;;;;;;;12.09;47.78;101554.79;110643;1253;22386;-54
2024/03/06 04:45:17;;;;;;;21.00;17.60;;;;;;;12.07;47.50;101555.52;110646;1266;22156;-54
2024/03/06 04:47:44;;;;;;;23.50;18.00;;;;;;;12.06;47.41;101559.17;110610;1263;22281;-54
2024/03/06 04:50:11;;;;;;;23.90;17.80;;;;;;;12.04;47.46;101555.38;110464;1274;23204;-54
2024/03/06 04:52:39;;;;;;;21.30;17.40;;;;;;;12.03;47.23;101557.31;110643;1266;23061;-54
2024/03/06 04:55:07;;;;;;;23.20;16.70;;;;;;;12.03;47.03;101559.92;110573;1267;22851;-54
2024/03/06 04:57:34;;;;;;;25.70;17.40;;;;;;;12.03;47.01;101561.14;110612;1254;22744;-54
2024/03/06 05:00:05;;;;;;;26.00;17.60;;;;;;;12.02;46.95;101565.32;110679;1255;22357;-54
2024/03/06 05:02:36;;;;;;;23.30;16.20;;;;;;;12.02;47.18;101565.85;110636;1254;22503;-54
2024/03/06 05:05:22;;;;;;;24.10;16.30;;;;;;;12.02;46.74;101569.16;110519;1253;22202;-54
2024/03/06 05:08:07;;;;;;;23.70;16.00;;;;;;;12.01;46.50;101568.81;109850;1266;1002299;-54
2024/03/06 05:10:52;;;;;;;21.20;17.10;;;;;;;11.98;46.54;101564.68;110650;1266;22438;-54
2024/03/06 05:13:39;;;;;;;22.50;16.40;;;;;;;11.98;46.23;101567.48;110611;1263;22950;-54
2024/03/06 05:16:23;;;;;;;23.90;16.50;;;;;;;11.97;46.24;101565.94;110601;1263;22220;-54
2024/03/06 05:19:10;;;;;;;21.80;16.10;;;;;;;11.97;46.08;101571.16;110635;1253;22160;-54
2024/03/06 05:21:55;;;;;;;20.90;14.30;;;;;;;11.96;45.82;101572.89;110610;1266;22127;-54
2024/03/06 05:24:40;;;;;;;17.40;14.10;;;;;;;11.93;45.66;101577.10;110580;1254;23000;-54
2024/03/06 05:27:26;;;;;;;17.40;14.80;;;;;;;11.92;45.62;101573.66;110610;1250;22350;-54
2024/03/06 05:30:11;;;;;;;21.30;14.00;;;;;;;11.90;45.61;101576.11;110660;1254;22225;-54
2024/03/06 05:32:56;;;;;;;18.20;13.70;;;;;;;11.90;45.67;101585.34;109872;1250;1003091;-54
2024/03/06 05:35:42;;;;;;;18.60;13.40;;;;;;;11.89;45.68;101585.17;110582;1266;22363;-54
2024/03/06 05:38:27;;;;;;;16.80;12.30;;;;;;;11.89;45.50;101584.31;110637;1256;22445;-54
2024/03/06 05:41:12;;;;;;;17.90;13.70;;;;;;;11.87;45.17;101585.02;110578;1266;23089;-54
2024/03/06 05:43:56;;;;;;;14.80;12.70;;;;;;;11.87;45.27;101585.55;110610;1263;22393;-54
2024/03/06 05:46:41;;;;;;;18.20;13.60;;;;;;;11.86;45.20;101587.83;110611;1256;22132;-54
2024/03/06 05:49:27;;;;;;;16.10;12.50;;;;;;;11.87;45.22;101589.38;110596;1257;23166;-54
2024/03/06 05:52:12;;;;;;;21.00;12.90;;;;;;;11.86;45.18;101590.08;110603;1254;22881;-54
2024/03/06 05:54:57;;;;;;;22.90;12.30;;;;;;;11.85;45.20;101593.92;110627;1255;22316;-54
2024/03/06 05:57:45;;;;;;;15.10;12.00;;;;;;;11.90;45.27;101591.59;110641;1254;22144;-54
2024/03/06 06:00:30;;;;;;;16.70;11.70;;;;;;;11.93;45.05;101589.62;110600;1256;22143;-54
2024/03/06 06:02:57;;;;;;;17.30;12.10;;;;;;;11.94;44.84;101591.88;109829;1254;1003020;-54
2024/03/06 06:05:24;;;;;;;16.40;12.50;;;;;;;11.93;44.70;101591.20;110612;1266;22892;-54
2024/03/06 06:07:51;;;;;;;14.80;12.40;;;;;;;11.92;44.30;101591.40;110611;1255;22192;-54
2024/03/06 06:10:18;;;;;;;17.10;12.70;;;;;;;11.90;44.27;101593.50;110582;1260;22440;-54
2024/03/06 06:12:49;;;;;;;15.30;12.10;;;;;;;11.89;44.55;101594.21;110659;1266;22385;-54
2024/03/06 06:15:16;;;;;;;14.20;12.20;;;;;;;11.89;44.58;101597.70;110586;1256;22884;-54
2024/03/06 06:17:44;;;;;;;17.90;12.70;;;;;;;11.88;44.71;101596.66;109831;1250;1002967;-54
2024/03/06 06:20:14;;;;;;;16.10;12.40;;;;;;;11.89;44.75;101594.75;110627;1254;23067;-54
2024/03/06 06:22:44;;;;;;;16.20;12.50;;;;;;;11.90;44.78;101595.41;109811;1254;1002375;-54
2024/03/06 06:25:12;;;;;;;19.20;13.70;;;;;;;11.92;44.80;101598.16;110649;1251;22976;-54
2024/03/06 06:27:39;;;;;;;18.20;12.60;;;;;;;11.92;44.05;101596.25;110625;1254;22280;-54
2024/03/06 06:30:11;;;;;;;14.90;12.60;;;;;;;11.92;43.92;101596.08;110635;1254;23120;-54
2024/03/06 06:32:40;;;;;;;14.30;11.70;;;;;;;11.92;44.08;101596.06;110629;1254;22738;-54
2024/03/06 06:35:07;;;;;;;14.70;12.90;;;;;;;11.93;44.06;101597.98;110631;1250;22137;-54
2024/03/06 06:37:35;;;;;;;18.60;12.80;;;;;;;11.93;44.13;101594.84;110652;1250;22394;-54
2024/03/06 06:40:06;;;;;;;21.50;12.10;;;;;;;11.95;44.28;101594.64;109825;1256;1002932;-54
2024/03/06 06:42:34;;;;;;;;;;;;;;;11.99;44.22;101597.88;109890;1254;1002171;-54
2024/03/06 06:45:00;;;;;;;16.10;11.80;;;;;;;12.02;44.29;101600.11;110409;1258;22276;-54
2024/03/06 06:47:27;;;;;;;16.00;11.60;;;;;;;12.04;44.13;101599.55;110614;1274;22334;-54
2024/03/06 06:49:55;;;;;;;16.80;11.70;;;;;;;12.07;44.16;101598.98;110523;1270;22307;-54
2024/03/06 06:52:22;;;;;;;15.20;11.60;;;;;;;12.10;44.01;101598.42;110545;1275;22286;-54
2024/03/06 06:54:51;;;;;;;14.00;11.90;;;;;;;12.13;44.01;101600.30;110396;1275;22120;-54
2024/03/06 06:57:19;;;;;;;16.70;12.10;;;;;;;12.18;43.88;101594.98;109796;1274;1002595;-54
2024/03/06 06:59:46;;;;;;;16.30;11.70;;;;;;;12.22;43.91;101598.25;110575;1274;22124;-54
2024/03/06 07:02:14;;;;;;;18.40;11.90;;;;;;;12.26;43.78;101602.19;109689;1269;1002189;-54
2024/03/06 07:04:41;;;;;;;14.90;11.90;;;;;;;12.30;43.70;101600.92;109828;1267;1003528;-56
2024/03/06 07:07:08;;;;;;;14.20;11.00;;;;;;;12.29;43.39;101599.01;110598;1274;22117;-54
2024/03/06 07:09:35;;;;;;;19.00;12.30;;;;;;;12.35;43.03;101601.36;110410;1274;22423;-54
2024/03/06 07:12:02;;;;;;;17.30;11.80;;;;;;;12.40;42.92;101602.31;110630;1266;22378;-54
2024/03/06 07:14:30;;;;;;;14.60;11.80;;;;;;;12.45;42.93;101605.89;110381;1272;22139;-54
2024/03/06 07:16:57;;;;;;;16.60;11.40;;;;;;;12.50;43.11;101605.63;110610;1267;22794;-54
2024/03/06 07:19:24;;;;;;;16.70;11.40;;;;;;;12.53;42.81;101607.84;110563;1274;22389;-54
2024/03/06 07:21:53;;;;;;;15.90;11.50;;;;;;;12.57;42.56;101610.40;110616;1266;22182;-54
2024/03/06 07:24:20;;;;;;;14.00;11.90;;;;;;;12.60;42.83;101614.17;109819;1273;1002920;-54
2024/03/06 07:26:47;;;;;;;14.80;12.00;;;;;;;12.65;42.89;101612.52;110611;1268;22502;-54
2024/03/06 07:29:14;;;;;;;15.60;12.00;;;;;;;12.68;42.10;101617.36;110588;1274;23079;-54
2024/03/06 07:31:41;;;;;;;14.90;11.90;;;;;;;12.69;41.79;101619.42;110601;1274;22495;-54
2024/03/06 07:34:08;;;;;;;17.60;11.30;;;;;;;12.71;41.95;101623.55;110644;1251;22301;-55
2024/03/06 07:36:35;;;;;;;14.70;11.20;;;;;;;12.74;42.03;101621.06;110603;1266;22236;-54
2024/03/06 07:39:03;;;;;;;15.60;12.40;;;;;;;12.78;42.16;101619.96;110584;1274;22188;-54
2024/03/06 07:41:32;;;;;;;14.00;11.30;;;;;;;12.83;42.24;101623.70;109684;1266;1002770;-54
2024/03/06 07:44:00;;;;;;;15.60;12.70;;;;;;;12.89;42.21;101621.16;110533;1274;23117;-55
2024/03/06 07:46:27;;;;;;;20.60;14.60;;;;;;;12.94;42.42;101621.58;110417;1273;22206;-54
2024/03/06 07:48:54;;;;;;;22.80;16.50;;;;;;;13.00;42.53;101619.56;110583;1270;22283;-55
2024/03/06 07:51:21;;;;;;;22.00;16.20;;;;;;;13.05;42.50;101618.09;110612;1252;22462;-54
2024/03/06 07:53:50;;;;;;;19.10;15.40;;;;;;;13.10;42.29;101619.77;109844;1269;1003052;-54
2024/03/06 07:56:17;;;;;;;16.90;12.60;;;;;;;13.14;42.21;101618.84;109814;1267;1002434;-54
2024/03/06 07:58:44;;;;;;;15.30;12.60;;;;;;;13.14;41.87;101620.75;110603;1266;22377;-54
2024/03/06 08:01:11;;;;;;;18.60;12.30;;;;;;;13.13;41.37;101623.91;110609;1267;22139;-54
2024/03/06 08:03:40;;;;;;;16.80;12.80;;;;;;;13.10;41.28;101628.14;110431;1274;22156;-54
2024/03/06 08:06:06;;;;;;;18.00;13.10;;;;;;;13.12;41.75;101629.68;109819;1266;1003072;-54
2024/03/06 08:08:34;;;;;;;17.70;14.80;;;;;;;13.12;41.46;101629.50;110612;1267;22291;-54
2024/03/06 08:11:01;;;;;;;22.60;15.10;;;;;;;13.09;41.32;101629.89;109823;1267;1002614;-54
2024/03/06 08:13:29;;;;;;;18.60;15.50;;;;;;;13.05;41.39;101635.52;110613;1266;22324;-54
2024/03/06 08:15:56;;;;;;;21.50;16.10;;;;;;;13.00;41.18;101631.05;110422;1274;22154;-54
2024/03/06 08:18:23;;;;;;;23.60;16.10;;;;;;;12.96;41.14;101630.61;110620;1266;23668;-54
2024/03/06 08:20:50;;;;;;;20.00;15.60;;;;;;;12.94;41.44;101631.34;109844;1270;1002408;-54
2024/03/06 08:23:17;;;;;;;23.20;16.50;;;;;;;12.93;41.79;101630.66;110612;1274;22324;-54
2024/03/06 08:25:45;;;;;;;26.90;17.40;;;;;;;12.92;41.53;101634.68;110588;1266;22380;-54
2024/03/06 08:28:12;;;;;;;20.40;16.50;;;;;;;12.93;41.79;101634.84;110459;1271;23112;-54
2024/03/06 08:30:39;;;;;;;20.40;15.90;;;;;;;12.93;41.84;101635.36;110594;1274;23122;-54
2024/03/06 08:33:06;;;;;;;20.80;15.80;;;;;;;12.96;41.98;101637.39;110585;1270;22938;-54
2024/03/06 08:35:33;;;;;;;21.80;15.70;;;;;;;12.98;41.74;101640.84;109818;1274;1002998;-54
2024/03/06 08:38:00;;;;;;;22.70;16.50;;;;;;;13.00;41.75;101637.67;110556;1274;22414;-54
2024/03/06 08:40:28;;;;;;;23.30;16.30;;;;;;;13.01;41.58;101641.14;110625;1266;22228;-54
2024/03/06 08:42:55;;;;;;;22.70;16.90;;;;;;;13.03;41.67;101641.45;110586;1266;22145;-55
2024/03/06 08:45:23;;;;;;;19.70;15.20;;;;;;;13.05;41.41;101641.09;109369;1275;1003055;-54
2024/03/06 08:47:50;;;;;;;22.70;15.80;;;;;;;13.10;41.38;101636.69;110582;1273;22989;-54
2024/03/06 08:50:17;;;;;;;26.90;17.00;;;;;;;13.13;41.32;101638.19;110589;1266;22291;-54
2024/03/06 08:52:45;;;;;;;31.70;19.70;;;;;;;13.17;41.52;101640.73;109420;1274;1002316;-54
2024/03/06 08:55:12;;;;;;;21.90;16.70;;;;;;;13.22;41.74;101641.16;110603;1266;22282;-54
2024/03/06 08:57:38;;;;;;;20.10;14.60;;;;;;;13.27;41.65;101641.07;110407;1274;22430;-54
2024/03/06 09:00:10;;;;;;;22.30;15.80;;;;;;;13.30;41.22;101644.32;109705;1266;1002741;-54
2024/03/06 09:02:40;;;;;;;21.80;15.10;;;;;;;13.32;40.82;101646.70;110472;1266;22448;-54
2024/03/06 09:05:10;;;;;;;21.50;13.10;;;;;;;13.35;40.46;101648.23;109832;1266;1002257;-54
2024/03/06 09:07:38;;;;;;;20.90;14.50;;;;;;;13.38;40.59;101649.55;110579;1267;22351;-54
2024/03/06 09:10:08;;;;;;;20.50;14.60;;;;;;;13.42;40.90;101652.43;110577;1274;22356;-54
2024/03/06 09:12:35;;;;;;;22.70;14.50;;;;;;;13.47;40.82;101650.27;110632;1267;22161;-54
2024/03/06 09:15:02;;;;;;;18.50;14.70;;;;;;;13.50;40.99;101652.63;110583;1274;22397;-54
2024/03/06 09:17:30;;;;;;;20.40;14.90;;;;;;;13.55;41.06;101653.77;110580;1274;22479;-54
2024/03/06 09:19:57;;;;;;;20.70;14.20;;;;;;;13.56;40.36;101656.52;110637;1266;22698;-54
2024/03/06 09:22:39;;;;;;;17.40;13.80;;;;;;;13.58;40.07;101662.60;110607;1266;22372;-54
2024/03/06 09:25:06;;;;;;;21.00;14.40;;;;;;;13.61;39.86;101667.06;110622;1266;22392;-55
2024/03/06 09:27:34;;;;;;;24.30;17.00;;;;;;;13.65;40.79;101666.98;110603;1266;22412;-54
2024/03/06 09:30:02;;;;;;;20.90;16.40;;;;;;;13.70;41.62;101674.73;110577;1274;23105;-54
2024/03/06 09:32:30;;;;;;;25.20;17.30;;;;;;;13.71;42.14;101682.02;109776;1274;1002588;-54
2024/03/06 09:34:58;;;;;;;27.30;18.40;;;;;;;13.71;42.44;101682.73;110557;1270;23289;-54
2024/03/06 09:37:25;;;;;;;22.10;17.30;;;;;;;13.68;42.72;101684.00;110591;1274;22336;-54
2024/03/06 09:39:52;;;;;;;23.80;19.10;;;;;;;13.64;42.94;101685.31;110603;1267;22496;-54
2024/03/06 09:42:19;;;;;;;25.60;18.40;;;;;;;13.62;43.03;101685.16;110615;1266;22158;-54
2024/03/06 09:44:47;;;;;;;23.50;17.20;;;;;;;13.61;43.30;101685.20;109833;1267;1002198;-54
2024/03/06 09:47:15;;;;;;;23.40;16.90;;;;;;;13.62;43.30;101687.80;109819;1274;1003454;-54
2024/03/06 09:49:43;;;;;;;28.70;15.90;;;;;;;13.62;43.29;101687.79;110589;1274;22119;-54
2024/03/06 09:52:10;;;;;;;26.00;18.20;;;;;;;13.63;43.15;101691.59;110584;1269;22370;-54
2024/03/06 09:54:39;;;;;;;25.10;17.90;;;;;;;13.64;42.92;101693.50;110610;1266;22489;-54
2024/03/06 09:57:05;;;;;;;23.90;18.60;;;;;;;13.60;42.95;101695.14;110498;1275;22294;-54
2024/03/06 09:59:32;;;;;;;21.20;18.00;;;;;;;13.53;42.92;101700.18;110570;1274;22171;-54
2024/03/06 10:02:02;;;;;;;31.20;17.70;;;;;;;13.45;43.09;101705.55;110383;1274;22138;-54
2024/03/06 10:04:32;;;;;;;23.50;17.20;;;;;;;13.40;42.85;101705.13;110573;1266;23111;-54
2024/03/06 10:06:59;;;;;;;27.30;18.40;;;;;;;13.33;42.76;101701.94;109813;1274;1002453;-54
2024/03/06 10:09:26;;;;;;;26.80;17.70;;;;;;;13.31;42.52;101704.77;110580;1267;23198;-54
2024/03/06 10:11:56;;;;;;;26.90;18.40;;;;;;;13.29;42.42;101710.55;110600;1273;23169;-54
2024/03/06 10:14:24;;;;;;;28.60;18.00;;;;;;;13.27;42.23;101715.11;110275;1273;22279;-55
2024/03/06 10:17:00;;;;;;;24.20;19.00;;;;;;;13.25;41.77;101714.45;109812;1274;1002728;-54
2024/03/06 10:19:29;;;;;;;28.60;19.50;;;;;;;13.19;41.66;101714.38;110586;1271;22938;-54
2024/03/06 10:21:56;;;;;;;27.00;19.10;;;;;;;13.15;41.68;101718.81;110523;1270;22264;-54
2024/03/06 10:24:27;;;;;;;28.10;18.70;;;;;;;13.12;41.81;101718.86;110601;1267;22176;-54
2024/03/06 10:26:57;;;;;;;30.10;19.70;;;;;;;13.11;42.03;101719.07;109827;1270;1002889;-54
2024/03/06 10:29:25;;;;;;;24.30;18.80;;;;;;;13.09;42.15;101715.23;110446;1269;22301;-54
2024/03/06 10:31:57;;;;;;;25.80;18.30;;;;;;;13.11;42.40;101715.05;110366;1270;22437;-54
2024/03/06 10:34:24;;;;;;;;;;;;;;;13.14;42.50;101714.46;110372;1270;23157;-54
2024/03/06 10:36:55;;;;;;;26.90;19.50;;;;;;;13.14;42.50;101713.77;110379;1277;22196;-54
2024/03/06 10:39:24;;;;;;;29.10;18.40;;;;;;;13.12;42.78;101713.46;110369;1277;22171;-54
2024/03/06 10:41:57;;;;;;;32.00;19.00;;;;;;;13.13;42.96;101714.34;110363;1276;22949;-54
2024/03/06 10:44:25;;;;;;;25.90;19.30;;;;;;;13.15;42.90;101712.38;110382;1277;22610;-54
2024/03/06 10:46:59;;;;;;;29.40;18.60;;;;;;;13.17;42.99;101712.67;110327;1269;23059;-54
2024/03/06 10:49:30;;;;;;;33.60;19.20;;;;;;;13.20;42.72;101709.14;110263;1270;22350;-54
2024/03/06 10:51:58;;;;;;;28.50;18.40;;;;;;;13.20;41.99;101716.11;110351;1273;22226;-54
2024/03/06 10:54:27;;;;;;;30.20;17.30;;;;;;;13.18;41.86;101716.48;110354;1277;22418;-54
2024/03/06 10:56:54;;;;;;;23.30;16.90;;;;;;;13.20;41.91;101717.70;110371;1275;23199;-54
2024/03/06 10:59:21;;;;;;;24.50;17.70;;;;;;;13.20;41.65;101718.55;110227;1277;22903;-55
2024/03/06 11:01:49;;;;;;;28.50;18.30;;;;;;;13.19;41.38;101717.19;110280;1277;22149;-54
2024/03/06 11:04:16;;;;;;;26.60;18.60;;;;;;;13.15;41.57;101716.02;110571;1272;22380;-54
2024/03/06 11:06:44;;;;;;;24.50;17.70;;;;;;;13.15;41.55;101714.82;110640;1266;22127;-54
2024/03/06 11:09:14;;;;;;;25.90;18.90;;;;;;;13.14;41.79;101711.67;109789;1274;1002288;-55